Time;durP1;ratioP1;P1;durP2;ratioP2;P2;SDS_P1;SDS_P2;PMS_P1;PMS_P2;Temp;Humidity;BMP_temperature;BMP_pressure;BME280_temperature;BME280_humidity;BME280_pressure;Samples;Min_cycle;Max_cycle;Signal;HPM_P1;HPM_P2
2023/07/27 00:00:11;;;;;;;2.63;1.95;;;18.60;99.90;;;;;;5048063;28;20028;-42
2023/07/27 00:02:36;;;;;;;2.17;1.98;;;18.70;99.90;;;;;;5047525;28;20037;-41
2023/07/27 00:05:03;;;;;;;2.50;2.05;;;18.70;99.90;;;;;;5046694;28;20028;-41
2023/07/27 00:07:29;;;;;;;2.47;1.80;;;18.60;99.90;;;;;;5047845;28;20037;-41
2023/07/27 00:09:54;;;;;;;2.80;2.10;;;18.70;99.90;;;;;;5046518;28;20041;-41
2023/07/27 00:12:21;;;;;;;2.67;2.25;;;18.60;99.90;;;;;;5046998;28;20477;-42
2023/07/27 00:14:47;;;;;;;2.05;1.73;;;18.70;99.90;;;;;;5047293;28;20545;-41
2023/07/27 00:17:15;;;;;;;2.30;1.85;;;18.70;99.90;;;;;;5047312;28;20115;-42
2023/07/27 00:19:43;;;;;;;2.05;1.80;;;18.70;99.90;;;;;;5046476;28;20021;-41
2023/07/27 00:22:09;;;;;;;2.17;1.88;;;18.70;99.90;;;;;;5047537;28;20044;-41
2023/07/27 00:24:38;;;;;;;2.03;1.88;;;18.60;99.90;;;;;;5046205;28;20052;-42
2023/07/27 00:27:03;;;;;;;2.35;1.95;;;18.60;99.90;;;;;;5047598;28;20067;-42
2023/07/27 00:29:32;;;;;;;2.63;1.85;;;18.60;99.90;;;;;;5047769;28;20037;-41
2023/07/27 00:31:57;;;;;;;2.05;1.80;;;18.60;99.90;;;;;;5047145;28;20020;-42
2023/07/27 00:34:23;;;;;;;2.83;2.05;;;18.60;99.90;;;;;;5047136;28;20132;-42
2023/07/27 00:36:48;;;;;;;2.47;2.05;;;18.60;99.90;;;;;;5047329;28;20025;-42
2023/07/27 00:39:14;;;;;;;1.95;1.60;;;18.60;99.90;;;;;;5046229;28;20021;-42
2023/07/27 00:41:41;;;;;;;2.47;1.90;;;18.60;99.90;;;;;;5046677;28;20835;-42
2023/07/27 00:44:07;;;;;;;3.00;2.25;;;18.60;99.90;;;;;;5046413;28;20146;-42
2023/07/27 00:46:33;;;;;;;2.13;1.92;;;18.60;99.90;;;;;;5042318;28;20468;-42
2023/07/27 00:48:58;;;;;;;4.05;1.63;;;18.60;99.90;;;;;;5047198;28;20124;-42
2023/07/27 00:51:24;;;;;;;2.05;1.85;;;18.50;99.90;;;;;;5046485;28;20115;-42
2023/07/27 00:53:50;;;;;;;4.07;2.50;;;18.50;99.90;;;;;;5046384;28;20388;-41
2023/07/27 00:56:16;;;;;;;3.33;2.60;;;18.50;99.90;;;;;;5046651;28;20501;-42
2023/07/27 00:58:43;;;;;;;3.13;2.75;;;18.40;99.90;;;;;;5026563;28;20052;-42
2023/07/27 01:01:10;;;;;;;3.40;2.60;;;18.40;99.90;;;;;;5039473;28;20077;-42
2023/07/27 01:03:37;;;;;;;4.35;2.95;;;18.30;99.90;;;;;;5046706;28;20055;-42
2023/07/27 01:06:03;;;;;;;2.92;2.63;;;18.30;99.90;;;;;;5045783;28;20040;-42
2023/07/27 01:08:30;;;;;;;3.53;2.55;;;18.20;99.90;;;;;;5045714;28;20049;-42
2023/07/27 01:11:14;;;;;;;2.75;2.55;;;18.10;99.90;;;;;;5046324;28;20036;-42
2023/07/27 01:13:57;;;;;;;2.67;2.40;;;18.00;99.90;;;;;;5046274;28;20044;-41
2023/07/27 01:16:33;;;;;;;4.00;3.10;;;17.90;99.90;;;;;;5045948;28;20017;-41
2023/07/27 01:19:17;;;;;;;3.03;2.80;;;17.90;99.90;;;;;;5046136;28;20040;-41
2023/07/27 01:21:48;;;;;;;4.43;3.08;;;17.90;99.90;;;;;;5045370;28;20040;-41
2023/07/27 01:24:52;;;;;;;3.10;2.80;;;17.80;99.90;;;;;;5045917;28;20638;-42
2023/07/27 01:27:58;;;;;;;2.75;2.55;;;17.70;99.90;;;;;;5014698;28;20499;-41
2023/07/27 01:30:27;;;;;;;2.83;2.38;;;17.70;99.90;;;;;;5018831;28;20037;-41
2023/07/27 01:32:59;;;;;;;2.75;2.47;;;17.60;99.90;;;;;;5046382;28;20021;-41
2023/07/27 01:35:31;;;;;;;2.80;2.40;;;17.60;99.90;;;;;;5045967;28;20120;-42
2023/07/27 01:37:58;;;;;;;2.40;2.20;;;17.50;99.90;;;;;;5046534;28;20024;-42
2023/07/27 01:40:24;;;;;;;2.60;2.40;;;17.50;99.90;;;;;;5045679;28;20029;-41
2023/07/27 01:42:51;;;;;;;3.38;2.40;;;17.40;99.90;;;;;;5044848;28;20218;-41
2023/07/27 01:45:18;;;;;;;3.22;2.45;;;17.40;99.90;;;;;;5045429;28;20028;-42
2023/07/27 01:47:45;;;;;;;2.97;2.22;;;17.30;99.90;;;;;;5045656;28;20021;-42
2023/07/27 01:50:34;;;;;;;2.30;2.10;;;17.30;99.90;;;;;;5044875;28;20531;-41
2023/07/27 01:53:00;;;;;;;2.50;2.15;;;17.30;99.90;;;;;;5044673;28;20041;-42
2023/07/27 01:55:27;;;;;;;3.17;2.38;;;17.20;99.90;;;;;;5045951;28;20025;-42
2023/07/27 01:57:54;;;;;;;4.57;2.85;;;17.20;99.90;;;;;;5044363;28;20044;-41
2023/07/27 02:00:20;;;;;;;4.05;2.60;;;17.30;99.90;;;;;;5045242;28;20122;-42
2023/07/27 02:02:46;;;;;;;3.90;2.60;;;17.30;99.90;;;;;;5045317;28;20029;-41
2023/07/27 02:05:12;;;;;;;3.30;2.53;;;17.30;99.90;;;;;;5044190;28;20574;-43
2023/07/27 02:07:44;;;;;;;4.25;3.10;;;17.40;99.90;;;;;;5045117;28;20024;-43
2023/07/27 02:10:14;;;;;;;3.22;2.67;;;17.40;99.90;;;;;;5044502;28;20056;-43
2023/07/27 02:12:52;;;;;;;3.15;2.85;;;17.40;99.90;;;;;;5044659;28;20055;-42
2023/07/27 02:15:26;;;;;;;3.08;2.55;;;17.40;99.90;;;;;;5045344;28;20031;-42
2023/07/27 02:18:16;;;;;;;3.30;2.90;;;17.40;99.90;;;;;;5043975;28;20025;-42
2023/07/27 02:20:43;;;;;;;3.58;2.70;;;17.40;99.90;;;;;;5042164;28;20451;-41
2023/07/27 02:23:11;;;;;;;2.65;2.40;;;17.40;99.90;;;;;;5044694;28;20036;-42
2023/07/27 02:25:36;;;;;;;2.97;2.67;;;17.30;99.90;;;;;;5044492;28;20037;-41
2023/07/27 02:28:10;;;;;;;2.97;2.67;;;17.30;99.90;;;;;;5045144;28;20100;-42
2023/07/27 02:30:36;;;;;;;2.60;2.38;;;17.20;99.90;;;;;;5044781;28;20401;-42
2023/07/27 02:33:02;;;;;;;3.88;2.60;;;17.20;99.90;;;;;;5044395;28;20029;-41
2023/07/27 02:35:28;;;;;;;2.88;2.67;;;17.20;99.90;;;;;;5045147;28;20025;-42
2023/07/27 02:37:54;;;;;;;3.15;2.60;;;17.20;99.90;;;;;;5044619;28;20036;-42
2023/07/27 02:40:19;;;;;;;3.05;2.47;;;17.20;99.90;;;;;;5044229;28;20021;-42
2023/07/27 02:42:45;;;;;;;4.05;2.80;;;17.20;99.90;;;;;;5044526;28;20036;-42
2023/07/27 02:45:11;;;;;;;2.90;2.35;;;17.20;99.90;;;;;;5044039;28;20036;-42
2023/07/27 02:47:37;;;;;;;2.42;2.20;;;17.20;99.90;;;;;;5044815;28;20591;-42
2023/07/27 02:50:02;;;;;;;3.60;2.75;;;17.20;99.90;;;;;;5044588;28;20112;-42
2023/07/27 02:52:28;;;;;;;3.90;3.10;;;17.10;99.90;;;;;;5044142;28;20013;-42
2023/07/27 02:54:56;;;;;;;4.03;3.60;;;17.20;99.90;;;;;;5044495;28;20504;-43
2023/07/27 02:57:22;;;;;;;4.18;3.30;;;17.10;99.90;;;;;;5044755;28;20044;-43
2023/07/27 02:59:47;;;;;;;4.50;3.17;;;17.10;99.90;;;;;;5044089;28;20021;-42
2023/07/27 03:02:13;;;;;;;4.10;3.70;;;17.10;99.90;;;;;;5044796;28;20095;-42
2023/07/27 03:04:39;;;;;;;6.63;4.00;;;17.00;99.90;;;;;;5044245;28;20112;-41
2023/07/27 03:07:05;;;;;;;4.68;3.95;;;17.00;99.90;;;;;;5043881;28;20065;-41
2023/07/27 03:09:30;;;;;;;4.50;3.55;;;17.00;99.90;;;;;;5044608;28;20033;-42
2023/07/27 03:11:56;;;;;;;6.15;4.32;;;17.00;99.90;;;;;;5044804;28;20210;-42
2023/07/27 03:14:21;;;;;;;5.07;4.10;;;17.00;99.90;;;;;;5044041;28;20071;-42
2023/07/27 03:16:47;;;;;;;5.90;4.63;;;17.00;99.90;;;;;;5044626;28;20107;-41
2023/07/27 03:19:12;;;;;;;5.78;4.45;;;17.00;99.90;;;;;;5044375;28;20025;-41
2023/07/27 03:21:38;;;;;;;5.85;4.85;;;17.00;99.90;;;;;;5044011;28;20044;-42
2023/07/27 03:24:04;;;;;;;5.28;4.50;;;17.00;99.90;;;;;;5045043;28;20100;-42
2023/07/27 03:26:32;;;;;;;4.85;4.20;;;17.00;99.90;;;;;;5044952;28;20036;-42
2023/07/27 03:29:00;;;;;;;4.13;3.75;;;17.00;99.90;;;;;;5045117;28;20020;-41
2023/07/27 03:31:27;;;;;;;5.40;4.40;;;17.00;99.90;;;;;;5047712;28;20112;-42
2023/07/27 03:33:53;;;;;;;5.93;4.50;;;16.90;99.90;;;;;;5028732;28;20076;-42
2023/07/27 03:36:20;;;;;;;4.78;4.38;;;16.90;99.90;;;;;;5041961;28;20385;-42
2023/07/27 03:38:46;;;;;;;6.65;4.40;;;16.90;99.90;;;;;;5048279;28;20028;-42
2023/07/27 03:41:13;;;;;;;5.13;4.50;;;16.90;99.90;;;;;;5048351;28;20622;-41
2023/07/27 03:43:38;;;;;;;5.05;4.50;;;16.80;99.90;;;;;;5047507;28;20040;-41
2023/07/27 03:46:04;;;;;;;5.45;4.93;;;16.80;99.90;;;;;;5047902;28;20027;-42
2023/07/27 03:48:30;;;;;;;7.18;5.22;;;16.80;99.90;;;;;;5047703;28;20095;-42
2023/07/27 03:50:59;;;;;;;5.65;5.03;;;16.80;99.90;;;;;;5047495;28;20108;-42
2023/07/27 03:53:25;;;;;;;6.00;5.18;;;16.90;99.90;;;;;;5047920;28;20169;-42
2023/07/27 03:55:51;;;;;;;5.15;4.65;;;16.90;99.90;;;;;;5047294;28;20057;-41
2023/07/27 03:58:16;;;;;;;6.50;4.60;;;16.90;99.90;;;;;;5047877;28;20174;-42
2023/07/27 04:00:42;;;;;;;5.82;4.90;;;16.80;99.90;;;;;;5047465;28;20029;-41
2023/07/27 04:03:14;;;;;;;5.82;5.13;;;16.80;99.90;;;;;;5047411;28;20023;-41
2023/07/27 04:05:39;;;;;;;5.63;5.03;;;16.80;99.90;;;;;;5048536;28;20036;-41
2023/07/27 04:08:05;;;;;;;5.88;5.28;;;16.80;99.90;;;;;;5047779;28;20374;-41
2023/07/27 04:10:30;;;;;;;6.75;5.63;;;16.80;99.90;;;;;;5047534;28;20115;-41
2023/07/27 04:12:57;;;;;;;6.20;4.97;;;16.70;99.90;;;;;;5047822;28;20029;-42
2023/07/27 04:15:23;;;;;;;6.68;5.43;;;16.80;99.90;;;;;;5048404;28;20033;-42
2023/07/27 04:17:48;;;;;;;6.05;5.28;;;16.70;99.90;;;;;;5047068;28;20802;-41
2023/07/27 04:20:14;;;;;;;6.10;5.20;;;16.70;99.90;;;;;;5047096;28;20025;-41
2023/07/27 04:22:40;;;;;;;5.90;5.32;;;16.70;99.90;;;;;;5046994;28;20123;-41
2023/07/27 04:25:06;;;;;;;4.90;4.40;;;16.70;99.90;;;;;;5046616;28;20052;-42
2023/07/27 04:27:31;;;;;;;5.65;4.75;;;16.70;99.90;;;;;;5047066;28;20024;-42
2023/07/27 04:29:57;;;;;;;5.75;5.15;;;16.70;99.90;;;;;;5047741;28;20091;-42
2023/07/27 04:32:23;;;;;;;5.10;4.60;;;16.70;99.90;;;;;;5046054;28;20034;-41
2023/07/27 04:34:48;;;;;;;4.30;3.90;;;16.60;99.90;;;;;;5047229;28;20116;-42
2023/07/27 04:37:14;;;;;;;4.75;4.20;;;16.60;99.90;;;;;;5047440;28;20025;-42
2023/07/27 04:39:39;;;;;;;6.47;4.40;;;16.60;99.90;;;;;;5046319;28;20123;-42
2023/07/27 04:42:05;;;;;;;5.00;4.13;;;16.60;99.90;;;;;;5045955;28;20063;-42
2023/07/27 04:44:31;;;;;;;4.25;3.45;;;16.60;99.90;;;;;;5046568;28;20389;-41
2023/07/27 04:46:56;;;;;;;4.35;3.95;;;16.60;99.90;;;;;;5047126;28;20457;-42
2023/07/27 04:49:22;;;;;;;4.47;3.78;;;16.60;99.90;;;;;;5046299;28;20496;-42
2023/07/27 04:51:47;;;;;;;5.43;4.30;;;16.60;99.90;;;;;;5046261;28;20036;-42
2023/07/27 04:54:13;;;;;;;4.55;3.58;;;16.60;99.90;;;;;;5046026;28;20028;-42
2023/07/27 04:56:39;;;;;;;4.50;3.38;;;16.60;99.90;;;;;;5046384;28;20024;-42
2023/07/27 04:59:04;;;;;;;5.50;3.95;;;16.60;99.90;;;;;;5046062;28;20021;-42
2023/07/27 05:01:31;;;;;;;4.07;3.40;;;16.60;99.90;;;;;;5046542;28;20041;-42
2023/07/27 05:04:00;;;;;;;3.75;3.35;;;16.60;99.90;;;;;;5046628;28;20021;-43
2023/07/27 05:06:29;;;;;;;4.18;3.30;;;16.60;99.90;;;;;;5045331;28;20044;-43
2023/07/27 05:08:54;;;;;;;3.95;3.50;;;16.70;99.90;;;;;;5046330;28;20020;-41
2023/07/27 05:11:20;;;;;;;3.53;3.15;;;16.70;99.90;;;;;;5046075;28;20045;-42
2023/07/27 05:13:45;;;;;;;3.00;2.70;;;16.70;99.90;;;;;;5045454;28;20078;-42
2023/07/27 05:16:11;;;;;;;3.83;3.22;;;16.70;99.90;;;;;;5046299;28;20496;-42
2023/07/27 05:18:37;;;;;;;3.60;3.20;;;16.70;99.90;;;;;;5045943;28;20025;-43
2023/07/27 05:21:02;;;;;;;3.13;2.83;;;16.70;99.90;;;;;;5044537;28;20032;-42
2023/07/27 05:23:28;;;;;;;3.58;3.13;;;16.70;99.90;;;;;;5046407;28;20032;-42
2023/07/27 05:25:53;;;;;;;3.40;3.00;;;16.60;99.90;;;;;;5045626;28;20488;-43
2023/07/27 05:28:19;;;;;;;3.85;2.95;;;16.60;99.90;;;;;;5045280;28;20028;-42
2023/07/27 05:30:45;;;;;;;4.03;2.90;;;16.60;99.90;;;;;;5046167;28;20028;-42
2023/07/27 05:33:13;;;;;;;2.95;2.70;;;16.70;99.90;;;;;;5045631;28;20044;-42
2023/07/27 05:35:39;;;;;;;3.42;3.13;;;16.60;99.90;;;;;;5042466;28;20063;-42
2023/07/27 05:38:04;;;;;;;4.03;3.13;;;16.60;99.90;;;;;;5044909;28;20053;-41
2023/07/27 05:40:30;;;;;;;2.42;2.22;;;16.70;99.90;;;;;;5044810;28;20410;-42
2023/07/27 05:42:56;;;;;;;2.58;2.35;;;16.70;99.90;;;;;;5044643;28;20041;-41
2023/07/27 05:45:21;;;;;;;2.72;2.42;;;16.70;99.90;;;;;;5044676;28;20449;-42
2023/07/27 05:47:48;;;;;;;2.92;2.45;;;16.60;99.90;;;;;;5044554;28;20090;-41
2023/07/27 05:50:15;;;;;;;2.50;2.20;;;16.70;99.90;;;;;;5043722;28;20013;-41
2023/07/27 05:52:41;;;;;;;6.57;2.63;;;16.60;99.90;;;;;;5044401;28;20033;-43
2023/07/27 05:55:07;;;;;;;3.53;2.72;;;16.60;99.90;;;;;;5043288;28;20023;-42
2023/07/27 05:57:32;;;;;;;2.47;2.28;;;16.70;99.90;;;;;;5044446;28;20032;-42
2023/07/27 05:59:58;;;;;;;2.45;2.25;;;16.70;99.90;;;;;;5045547;28;20028;-42
2023/07/27 06:02:24;;;;;;;3.05;2.15;;;16.70;99.90;;;;;;5044113;28;20582;-42
2023/07/27 06:04:49;;;;;;;2.72;1.85;;;16.70;99.90;;;;;;5044748;28;20037;-41
2023/07/27 06:07:15;;;;;;;2.80;1.90;;;16.80;99.90;;;;;;5044656;28;20017;-42
2023/07/27 06:09:40;;;;;;;1.98;1.80;;;16.80;99.90;;;;;;5043842;28;20124;-41
2023/07/27 06:12:11;;;;;;;1.65;1.55;;;16.70;99.90;;;;;;5043859;28;20087;-41
2023/07/27 06:14:40;;;;;;;1.75;1.63;;;16.80;99.90;;;;;;5044974;28;20029;-42
2023/07/27 06:17:06;;;;;;;2.25;1.92;;;16.80;99.90;;;;;;5043559;28;20061;-42
2023/07/27 06:19:32;;;;;;;1.77;1.67;;;16.80;99.90;;;;;;5044330;28;20028;-42
2023/07/27 06:22:01;;;;;;;3.03;1.70;;;16.90;99.90;;;;;;5044251;28;20060;-42
2023/07/27 06:24:27;;;;;;;2.15;1.75;;;16.90;99.90;;;;;;5044512;28;20686;-42
2023/07/27 06:26:55;;;;;;;1.50;1.40;;;16.90;99.90;;;;;;5044930;28;20115;-42
2023/07/27 06:29:21;;;;;;;2.35;1.70;;;16.90;99.90;;;;;;5044913;28;20055;-42
2023/07/27 06:31:47;;;;;;;1.70;1.60;;;16.90;99.90;;;;;;5044061;28;20042;-42
2023/07/27 06:34:12;;;;;;;1.60;1.50;;;17.00;99.90;;;;;;5044387;28;20087;-42
2023/07/27 06:36:38;;;;;;;1.30;1.20;;;17.00;99.90;;;;;;5044590;28;20025;-42
2023/07/27 06:39:04;;;;;;;1.70;1.60;;;17.00;99.90;;;;;;5045212;28;20052;-41
2023/07/27 06:41:30;;;;;;;1.50;1.40;;;17.00;99.90;;;;;;5045138;28;20033;-42
2023/07/27 06:43:56;;;;;;;1.33;1.20;;;17.10;99.90;;;;;;5044565;28;20036;-41
2023/07/27 06:46:21;;;;;;;1.30;1.20;;;17.10;99.90;;;;;;5043247;28;20017;-42
2023/07/27 06:48:47;;;;;;;1.50;1.40;;;17.10;99.90;;;;;;5044616;28;20688;-42
2023/07/27 06:51:16;;;;;;;1.85;1.73;;;17.10;99.90;;;;;;5044989;28;20855;-42
2023/07/27 06:53:41;;;;;;;1.30;1.20;;;17.10;99.90;;;;;;5043527;28;20036;-42
2023/07/27 06:56:07;;;;;;;1.40;1.30;;;17.10;99.90;;;;;;5059572;28;20036;-42
2023/07/27 06:58:32;;;;;;;1.20;1.10;;;17.10;99.90;;;;;;5045114;28;20067;-42
2023/07/27 07:01:01;;;;;;;1.02;0.95;;;17.20;99.90;;;;;;5045105;28;20048;-42
2023/07/27 07:03:27;;;;;;;1.02;1.02;;;17.20;99.90;;;;;;5044161;28;20041;-42
2023/07/27 07:05:55;;;;;;;0.95;0.90;;;17.20;99.90;;;;;;5046670;28;20029;-42
2023/07/27 07:08:21;;;;;;;1.15;1.02;;;17.20;99.90;;;;;;5048701;28;20033;-42
2023/07/27 07:10:46;;;;;;;1.42;1.30;;;17.20;99.90;;;;;;5047892;28;20052;-42
2023/07/27 07:13:18;;;;;;;1.00;0.90;;;17.20;99.90;;;;;;5048016;28;20028;-42
2023/07/27 07:15:45;;;;;;;1.30;1.20;;;17.20;99.90;;;;;;5048323;28;20028;-42
2023/07/27 07:18:16;;;;;;;0.73;0.73;;;17.20;99.90;;;;;;5047955;28;20028;-42
2023/07/27 07:20:42;;;;;;;1.10;1.00;;;17.20;99.90;;;;;;5047234;28;20078;-41
2023/07/27 07:23:08;;;;;;;1.45;1.10;;;17.20;99.90;;;;;;5048114;28;20110;-41
2023/07/27 07:25:33;;;;;;;0.90;0.90;;;17.20;99.90;;;;;;5048133;28;20789;-41
2023/07/27 07:27:59;;;;;;;0.85;0.85;;;17.30;99.90;;;;;;5047240;28;20060;-42
2023/07/27 07:30:27;;;;;;;0.77;0.70;;;17.30;99.90;;;;;;5048256;28;20044;-41
2023/07/27 07:32:53;;;;;;;0.73;0.73;;;17.40;99.90;;;;;;5048250;28;20024;-41
2023/07/27 07:35:20;;;;;;;1.35;1.10;;;17.40;99.90;;;;;;5047601;28;20051;-41
2023/07/27 07:37:47;;;;;;;1.45;1.35;;;17.40;99.90;;;;;;5047817;28;20758;-41
2023/07/27 07:40:17;;;;;;;1.00;1.00;;;17.50;99.90;;;;;;5046941;28;20017;-42
2023/07/27 07:42:43;;;;;;;1.20;1.10;;;17.50;99.90;;;;;;5047126;28;20036;-41
2023/07/27 07:45:09;;;;;;;0.98;0.82;;;17.60;99.90;;;;;;5048164;28;20068;-42
2023/07/27 07:47:34;;;;;;;0.85;0.85;;;17.60;99.90;;;;;;5047054;28;20024;-42
2023/07/27 07:50:00;;;;;;;1.20;1.10;;;17.70;99.90;;;;;;5046846;28;20041;-41
2023/07/27 07:52:25;;;;;;;1.25;1.00;;;17.70;99.90;;;;;;5047918;28;20025;-42
2023/07/27 07:54:51;;;;;;;1.45;1.35;;;17.70;99.90;;;;;;5047268;28;20040;-41
2023/07/27 07:57:19;;;;;;;1.33;1.00;;;17.80;99.90;;;;;;5047325;28;20029;-41
2023/07/27 07:59:48;;;;;;;1.00;0.90;;;17.70;99.90;;;;;;5047345;28;20039;-41
2023/07/27 08:02:14;;;;;;;1.13;1.00;;;17.80;99.90;;;;;;5047048;28;20067;-41
2023/07/27 08:04:40;;;;;;;1.30;1.20;;;17.90;99.90;;;;;;5047708;28;20056;-41
2023/07/27 08:07:05;;;;;;;0.90;0.90;;;17.90;99.90;;;;;;5047797;28;20108;-41
2023/07/27 08:09:31;;;;;;;0.95;0.95;;;18.00;99.90;;;;;;5042237;28;20507;-41
2023/07/27 08:11:56;;;;;;;1.10;1.00;;;18.10;99.90;;;;;;5046952;28;20028;-41
2023/07/27 08:14:24;;;;;;;0.85;0.85;;;18.10;99.90;;;;;;5048172;28;20111;-42
2023/07/27 08:16:49;;;;;;;0.80;0.80;;;18.20;99.90;;;;;;5046619;28;20090;-42
2023/07/27 08:19:15;;;;;;;1.05;0.85;;;18.20;99.90;;;;;;5047231;28;20041;-41
2023/07/27 08:21:40;;;;;;;1.13;1.10;;;18.30;99.90;;;;;;5045675;28;20044;-42
2023/07/27 08:24:06;;;;;;;0.98;0.98;;;18.30;99.90;;;;;;5046573;28;20028;-42
2023/07/27 08:26:32;;;;;;;1.15;0.90;;;18.30;99.90;;;;;;5046850;28;20441;-42
2023/07/27 08:28:57;;;;;;;0.80;0.80;;;18.30;99.90;;;;;;5047844;28;20579;-41
2023/07/27 08:31:23;;;;;;;0.90;0.90;;;18.30;99.90;;;;;;5042673;28;20133;-41
2023/07/27 08:33:55;;;;;;;0.85;0.85;;;18.30;99.90;;;;;;5047352;28;20546;-42
2023/07/27 08:36:20;;;;;;;0.63;0.63;;;18.40;99.90;;;;;;5044140;28;20029;-41
2023/07/27 08:38:46;;;;;;;1.15;1.05;;;18.40;99.90;;;;;;5046239;28;20047;-41
2023/07/27 08:41:12;;;;;;;0.88;0.88;;;18.40;99.90;;;;;;5046560;28;20061;-41
2023/07/27 08:43:37;;;;;;;0.68;0.68;;;18.40;99.90;;;;;;5047239;28;20037;-41
2023/07/27 08:46:04;;;;;;;0.70;0.70;;;18.40;99.90;;;;;;5046349;28;20017;-41
2023/07/27 08:48:30;;;;;;;1.02;0.93;;;18.40;99.90;;;;;;5046999;28;20029;-41
2023/07/27 08:50:59;;;;;;;0.93;0.93;;;18.40;99.90;;;;;;5045714;28;20403;-41
2023/07/27 08:53:33;;;;;;;0.70;0.70;;;18.50;99.90;;;;;;5047030;28;20545;-42
2023/07/27 08:55:59;;;;;;;1.77;1.15;;;18.50;99.90;;;;;;5046928;28;20043;-42
2023/07/27 08:58:25;;;;;;;0.90;0.80;;;18.50;99.90;;;;;;5046201;28;20029;-42
2023/07/27 09:00:51;;;;;;;1.02;0.98;;;18.60;99.90;;;;;;5046914;28;20774;-41
2023/07/27 09:03:16;;;;;;;0.90;0.90;;;18.70;99.90;;;;;;5046173;28;20037;-42
2023/07/27 09:05:44;;;;;;;1.23;1.00;;;18.70;99.90;;;;;;5045805;28;20033;-41
2023/07/27 09:08:17;;;;;;;2.03;1.30;;;18.70;99.90;;;;;;5045937;28;20029;-41
2023/07/27 09:10:43;;;;;;;1.30;1.20;;;18.80;99.90;;;;;;5046402;28;20037;-41
2023/07/27 09:13:09;;;;;;;1.25;1.15;;;18.80;99.90;;;;;;5045274;28;20035;-41
2023/07/27 09:15:44;;;;;;;1.30;1.20;;;18.80;99.90;;;;;;5046146;28;20032;-41
2023/07/27 09:18:14;;;;;;;1.10;1.10;;;18.80;99.90;;;;;;5046439;28;20075;-41
2023/07/27 09:20:40;;;;;;;1.10;1.00;;;18.80;99.90;;;;;;5045556;28;20025;-41
2023/07/27 09:23:07;;;;;;;1.20;1.10;;;18.80;99.90;;;;;;5045428;28;20527;-41
2023/07/27 09:25:33;;;;;;;1.58;1.33;;;18.80;99.90;;;;;;5045914;28;20124;-42
2023/07/27 09:27:58;;;;;;;1.00;0.95;;;18.90;99.90;;;;;;5044911;28;20119;-41
2023/07/27 09:30:25;;;;;;;1.27;1.17;;;18.90;99.90;;;;;;5046244;28;20028;-41
2023/07/27 09:32:52;;;;;;;1.70;1.38;;;18.80;99.90;;;;;;5045850;28;20029;-41
2023/07/27 09:35:20;;;;;;;1.10;1.00;;;18.90;99.90;;;;;;5045743;28;20032;-41
2023/07/27 09:37:47;;;;;;;1.23;1.00;;;18.80;99.90;;;;;;5046141;28;20099;-42
2023/07/27 09:40:27;;;;;;;0.88;0.88;;;18.90;99.90;;;;;;5045864;28;20037;-41
2023/07/27 09:42:58;;;;;;;1.20;1.10;;;18.90;99.90;;;;;;5046215;28;20396;-41
2023/07/27 09:45:34;;;;;;;2.65;1.05;;;18.90;99.90;;;;;;5045829;28;20542;-42
2023/07/27 09:48:00;;;;;;;1.10;1.00;;;18.90;99.90;;;;;;5044753;28;20123;-42
2023/07/27 09:50:26;;;;;;;1.58;1.30;;;19.00;99.90;;;;;;5046273;28;20123;-42
2023/07/27 09:52:51;;;;;;;1.25;1.10;;;19.00;99.90;;;;;;5045106;28;20025;-42
2023/07/27 09:55:17;;;;;;;1.40;1.17;;;19.10;99.90;;;;;;5033894;28;20024;-42
2023/07/27 09:57:46;;;;;;;1.20;1.02;;;19.20;99.90;;;;;;5045568;28;20025;-42
2023/07/27 10:00:12;;;;;;;2.40;1.30;;;19.20;99.90;;;;;;5044973;28;20423;-42
2023/07/27 10:02:38;;;;;;;2.08;1.73;;;19.30;99.90;;;;;;5044275;28;20033;-42
2023/07/27 10:05:04;;;;;;;1.60;1.50;;;19.30;99.90;;;;;;5045551;28;20029;-41
2023/07/27 10:07:30;;;;;;;1.67;1.58;;;19.30;99.90;;;;;;5045277;28;20075;-41
2023/07/27 10:10:26;;;;;;;1.63;1.52;;;19.30;99.90;;;;;;5044284;28;20053;-42
2023/07/27 10:12:54;;;;;;;1.58;1.48;;;19.30;99.90;;;;;;5045382;28;20541;-42
2023/07/27 10:15:28;;;;;;;2.00;1.80;;;19.40;99.90;;;;;;5044055;28;20092;-42
2023/07/27 10:18:02;;;;;;;2.00;1.90;;;19.40;99.90;;;;;;5044775;28;20033;-41
2023/07/27 10:20:33;;;;;;;1.90;1.80;;;19.40;99.90;;;;;;5045139;28;20059;-41
2023/07/27 10:23:10;;;;;;;3.53;2.10;;;19.40;99.90;;;;;;5044222;28;20051;-42
2023/07/27 10:25:54;;;;;;;1.60;1.50;;;19.40;99.90;;;;;;5044904;28;20021;-42
2023/07/27 10:28:30;;;;;;;2.55;1.80;;;19.50;99.90;;;;;;5044923;28;20049;-42
2023/07/27 10:31:23;;;;;;;2.08;1.63;;;19.60;99.90;;;;;;5043945;28;20032;-42
2023/07/27 10:34:07;;;;;;;1.60;1.40;;;19.60;99.90;;;;;;5045342;28;20032;-42
2023/07/27 10:37:03;;;;;;;1.80;1.70;;;19.60;99.90;;;;;;5044833;28;20082;-42
2023/07/27 10:39:34;;;;;;;1.70;1.60;;;19.60;99.90;;;;;;5034964;28;20033;-43
2023/07/27 10:42:07;;;;;;;1.80;1.70;;;19.60;99.90;;;;;;5044161;28;20881;-42
2023/07/27 10:44:51;;;;;;;1.85;1.75;;;19.60;99.90;;;;;;5044357;28;20377;-42
2023/07/27 10:47:47;;;;;;;1.90;1.80;;;19.70;99.90;;;;;;5036366;28;20154;-42
2023/07/27 10:50:13;;;;;;;1.80;1.63;;;19.70;99.90;;;;;;5045101;28;20027;-42
2023/07/27 10:52:39;;;;;;;2.50;2.30;;;19.80;99.90;;;;;;5053334;28;20020;-42
2023/07/27 10:55:06;;;;;;;2.75;2.55;;;19.80;99.90;;;;;;5058418;28;20024;-41
2023/07/27 10:57:33;;;;;;;2.30;2.20;;;19.70;99.90;;;;;;5044151;28;20108;-42
2023/07/27 11:00:04;;;;;;;2.13;1.92;;;19.70;99.90;;;;;;5044368;28;20047;-46
2023/07/27 11:02:32;;;;;;;2.30;2.20;;;19.70;99.90;;;;;;5044934;28;20068;-42
2023/07/27 11:05:03;;;;;;;3.92;2.58;;;19.70;99.90;;;;;;5044226;28;20017;-42
2023/07/27 11:07:34;;;;;;;2.35;2.15;;;19.70;99.90;;;;;;5044936;28;20032;-41
2023/07/27 11:10:11;;;;;;;2.78;2.58;;;19.70;99.90;;;;;;5044824;28;20053;-41
2023/07/27 11:12:52;;;;;;;2.70;2.50;;;19.70;99.90;;;;;;5042140;28;20021;-41
2023/07/27 11:15:22;;;;;;;2.58;2.38;;;19.80;99.90;;;;;;5044493;28;20033;-41
2023/07/27 11:17:49;;;;;;;2.85;2.65;;;19.90;99.90;;;;;;5044246;28;20025;-41
2023/07/27 11:20:18;;;;;;;2.13;2.03;;;19.90;99.90;;;;;;5044091;28;20033;-41
2023/07/27 11:22:44;;;;;;;2.22;2.03;;;19.90;99.90;;;;;;5044553;28;20036;-45
2023/07/27 11:25:13;;;;;;;2.80;2.60;;;20.00;99.90;;;;;;5044700;28;20023;-42
2023/07/27 11:27:39;;;;;;;2.50;2.40;;;20.00;99.90;;;;;;5043865;28;20028;-42
2023/07/27 11:30:17;;;;;;;2.15;2.05;;;20.10;99.90;;;;;;5044521;28;20059;-42
2023/07/27 11:32:45;;;;;;;2.60;2.40;;;20.10;99.90;;;;;;5043325;28;20489;-42
2023/07/27 11:35:11;;;;;;;1.80;1.70;;;20.10;99.90;;;;;;5044753;28;20036;-42
2023/07/27 11:37:36;;;;;;;1.90;1.80;;;20.10;99.90;;;;;;5044076;28;20033;-42
2023/07/27 11:40:02;;;;;;;1.77;1.67;;;20.20;99.90;;;;;;5043681;28;20032;-41
2023/07/27 11:42:29;;;;;;;2.35;2.15;;;20.20;99.90;;;;;;5044091;28;20037;-42
2023/07/27 11:44:59;;;;;;;2.40;2.22;;;20.10;99.90;;;;;;5044236;28;20021;-41
2023/07/27 11:47:25;;;;;;;2.30;2.10;;;20.10;99.90;;;;;;5043813;28;20029;-41
2023/07/27 11:49:52;;;;;;;2.65;2.30;;;20.10;99.90;;;;;;5044300;28;20847;-41
2023/07/27 11:52:18;;;;;;;2.60;2.40;;;20.10;99.90;;;;;;5046798;28;20477;-42
2023/07/27 11:54:44;;;;;;;2.20;2.10;;;20.10;99.90;;;;;;5046688;28;20033;-41
2023/07/27 11:57:18;;;;;;;2.28;2.08;;;20.10;99.90;;;;;;5047757;28;20017;-42
2023/07/27 12:00:04;;;;;;;2.30;2.10;;;20.10;99.90;;;;;;5047733;28;20025;-41
2023/07/27 12:02:33;;;;;;;1.88;1.77;;;20.20;99.90;;;;;;5046894;28;20036;-41
2023/07/27 12:05:02;;;;;;;2.00;1.90;;;20.20;99.90;;;;;;5047268;28;20146;-42
2023/07/27 12:07:32;;;;;;;5.93;2.70;;;20.30;99.90;;;;;;5047452;28;20075;-41
2023/07/27 12:09:57;;;;;;;2.20;2.00;;;20.40;99.90;;;;;;5046624;28;20579;-41
2023/07/27 12:12:23;;;;;;;2.28;2.17;;;20.40;99.90;;;;;;5047620;28;20103;-42
2023/07/27 12:14:49;;;;;;;2.25;2.15;;;20.40;99.90;;;;;;5047197;28;20465;-42
2023/07/27 12:17:14;;;;;;;2.20;2.03;;;20.40;99.90;;;;;;5047058;28;20044;-42
2023/07/27 12:19:40;;;;;;;1.90;1.70;;;20.40;99.90;;;;;;5043118;28;20033;-41
2023/07/27 12:22:05;;;;;;;2.10;1.90;;;20.40;99.90;;;;;;5046794;28;20072;-41
2023/07/27 12:24:31;;;;;;;2.65;2.10;;;20.40;99.90;;;;;;5046671;28;20489;-42
2023/07/27 12:26:58;;;;;;;1.90;1.80;;;20.50;99.90;;;;;;5047780;28;20028;-41
2023/07/27 12:29:24;;;;;;;2.47;2.28;;;20.50;99.90;;;;;;5046561;28;20040;-41
2023/07/27 12:31:50;;;;;;;2.70;2.50;;;20.50;99.90;;;;;;5047046;28;20033;-42
2023/07/27 12:34:15;;;;;;;2.60;2.40;;;20.50;99.90;;;;;;5046696;28;20017;-42
2023/07/27 12:36:41;;;;;;;2.25;2.15;;;20.50;99.90;;;;;;5046417;28;20029;-41
2023/07/27 12:39:06;;;;;;;2.97;2.17;;;20.50;99.90;;;;;;5046582;28;20021;-42
2023/07/27 12:41:32;;;;;;;2.22;2.13;;;20.50;99.90;;;;;;5047283;28;20033;-42
2023/07/27 12:43:57;;;;;;;2.50;2.30;;;20.60;99.90;;;;;;5046259;28;20025;-42
2023/07/27 12:46:23;;;;;;;2.80;2.60;;;20.60;99.90;;;;;;5047036;28;20154;-42
2023/07/27 12:48:50;;;;;;;2.60;2.35;;;20.60;99.90;;;;;;5046704;28;20121;-42
2023/07/27 12:51:15;;;;;;;2.13;2.03;;;20.60;99.90;;;;;;5047012;28;20068;-41